sensor_id;sensor_type;location;lat;lon;timestamp;pressure;altitude;pressure_sealevel;temperature;humidity
74778;BME280;63298;53.164;8.610;2023-04-01T00:00:01;99498.81;;;11.60;81.36
74778;BME280;63298;53.164;8.610;2023-04-01T00:02:26;99500.47;;;11.61;81.04
74778;BME280;63298;53.164;8.610;2023-04-01T00:04:52;99501.59;;;11.60;80.68
74778;BME280;63298;53.164;8.610;2023-04-01T00:07:17;99495.22;;;11.60;81.38
74778;BME280;63298;53.164;8.610;2023-04-01T00:09:42;99488.34;;;11.57;81.22
74778;BME280;63298;53.164;8.610;2023-04-01T00:12:08;99491.38;;;11.61;80.87
74778;BME280;63298;53.164;8.610;2023-04-01T00:14:33;99501.06;;;11.63;81.14
74778;BME280;63298;53.164;8.610;2023-04-01T00:16:58;99493.28;;;11.65;80.87
74778;BME280;63298;53.164;8.610;2023-04-01T00:19:23;99490.53;;;11.60;81.03
74778;BME280;63298;53.164;8.610;2023-04-01T00:21:49;99498.00;;;11.65;80.86
74778;BME280;63298;53.164;8.610;2023-04-01T00:24:14;99491.38;;;11.56;81.52
74778;BME280;63298;53.164;8.610;2023-04-01T00:26:39;99490.53;;;11.60;81.22
74778;BME280;63298;53.164;8.610;2023-04-01T00:29:05;99486.16;;;11.54;81.93
74778;BME280;63298;53.164;8.610;2023-04-01T00:31:30;99487.50;;;11.57;81.61
74778;BME280;63298;53.164;8.610;2023-04-01T00:33:55;99494.13;;;11.56;81.62
74778;BME280;63298;53.164;8.610;2023-04-01T00:36:21;99486.41;;;11.58;81.55
74778;BME280;63298;53.164;8.610;2023-04-01T00:38:47;99484.75;;;11.57;81.56
74778;BME280;63298;53.164;8.610;2023-04-01T00:41:17;99491.94;;;11.63;81.71
74778;BME280;63298;53.164;8.610;2023-04-01T00:43:48;99490.84;;;11.64;81.79
74778;BME280;63298;53.164;8.610;2023-04-01T00:46:14;99487.78;;;11.65;81.50
74778;BME280;63298;53.164;8.610;2023-04-01T00:48:47;99489.44;;;11.66;81.46
74778;BME280;63298;53.164;8.610;2023-04-01T00:51:39;99495.22;;;11.70;81.17
74778;BME280;63298;53.164;8.610;2023-04-01T00:54:06;99490.53;;;11.70;81.29
74778;BME280;63298;53.164;8.610;2023-04-01T00:56:35;99491.13;;;11.73;81.58
74778;BME280;63298;53.164;8.610;2023-04-01T00:59:14;99493.03;;;11.72;81.19
74778;BME280;63298;53.164;8.610;2023-04-01T01:01:41;99488.38;;;11.73;80.69
74778;BME280;63298;53.164;8.610;2023-04-01T01:04:06;99485.84;;;11.71;80.98
74778;BME280;63298;53.164;8.610;2023-04-01T01:09:55;99490.53;;;11.70;81.48
74778;BME280;63298;53.164;8.610;2023-04-01T01:15:23;99497.47;;;11.73;81.29
74778;BME280;63298;53.164;8.610;2023-04-01T01:18:26;99493.03;;;11.72;80.84
74778;BME280;63298;53.164;8.610;2023-04-01T01:23:34;99493.59;;;11.69;80.82
74778;BME280;63298;53.164;8.610;2023-04-01T01:33:13;99499.38;;;11.62;81.28
74778;BME280;63298;53.164;8.610;2023-04-01T01:37:43;99497.16;;;11.59;81.39
74778;BME280;63298;53.164;8.610;2023-04-01T01:40:11;99496.63;;;11.57;81.30
74778;BME280;63298;53.164;8.610;2023-04-01T01:42:39;99493.28;;;11.55;81.70
74778;BME280;63298;53.164;8.610;2023-04-01T01:45:08;99499.13;;;11.54;81.81
74778;BME280;63298;53.164;8.610;2023-04-01T01:47:35;99486.69;;;11.56;81.81
74778;BME280;63298;53.164;8.610;2023-04-01T01:50:02;99495.22;;;11.60;81.83
74778;BME280;63298;53.164;8.610;2023-04-01T01:52:28;99492.47;;;11.60;81.75
74778;BME280;63298;53.164;8.610;2023-04-01T01:54:56;99494.97;;;11.61;81.54
74778;BME280;63298;53.164;8.610;2023-04-01T01:57:30;99498.28;;;11.63;81.67
74778;BME280;63298;53.164;8.610;2023-04-01T02:00:04;99490.28;;;11.62;81.61
74778;BME280;63298;53.164;8.610;2023-04-01T02:02:31;99492.19;;;11.61;81.11
74778;BME280;63298;53.164;8.610;2023-04-01T02:04:57;99507.94;;;11.66;81.68
74778;BME280;63298;53.164;8.610;2023-04-01T02:07:32;99498.28;;;11.58;82.25
74778;BME280;63298;53.164;8.610;2023-04-01T02:10:00;99507.09;;;11.65;81.85
74778;BME280;63298;53.164;8.610;2023-04-01T02:12:26;99503.25;;;11.61;81.62
74778;BME280;63298;53.164;8.610;2023-04-01T02:15:05;99511.81;;;11.65;81.45
74778;BME280;63298;53.164;8.610;2023-04-01T02:17:32;99506.56;;;11.63;81.39
74778;BME280;63298;53.164;8.610;2023-04-01T02:20:06;99511.25;;;11.63;81.73
74778;BME280;63298;53.164;8.610;2023-04-01T02:22:39;99516.50;;;11.59;81.75
74778;BME280;63298;53.164;8.610;2023-04-01T02:25:09;99511.81;;;11.55;82.17
74778;BME280;63298;53.164;8.610;2023-04-01T02:27:35;99502.72;;;11.54;81.88
74778;BME280;63298;53.164;8.610;2023-04-01T02:30:01;99511.00;;;11.54;81.78
74778;BME280;63298;53.164;8.610;2023-04-01T02:32:27;99514.03;;;11.58;82.58
74778;BME280;63298;53.164;8.610;2023-04-01T02:34:55;99516.78;;;11.58;81.68
74778;BME280;63298;53.164;8.610;2023-04-01T02:37:20;99520.38;;;11.58;82.12
74778;BME280;63298;53.164;8.610;2023-04-01T02:39:46;99515.97;;;11.57;81.73
74778;BME280;63298;53.164;8.610;2023-04-01T02:42:13;99515.41;;;11.55;81.67
74778;BME280;63298;53.164;8.610;2023-04-01T02:44:39;99521.47;;;11.52;82.06
74778;BME280;63298;53.164;8.610;2023-04-01T02:47:04;99515.13;;;11.47;82.40
74778;BME280;63298;53.164;8.610;2023-04-01T02:49:31;99518.44;;;11.49;81.77
74778;BME280;63298;53.164;8.610;2023-04-01T02:51:57;99522.31;;;11.48;82.12
74778;BME280;63298;53.164;8.610;2023-04-01T02:54:22;99527.28;;;11.51;81.97
74778;BME280;63298;53.164;8.610;2023-04-01T02:56:48;99518.97;;;11.46;82.06
74778;BME280;63298;53.164;8.610;2023-04-01T02:59:13;99519.53;;;11.48;81.93
74778;BME280;63298;53.164;8.610;2023-04-01T03:01:39;99523.13;;;11.48;82.01
74778;BME280;63298;53.164;8.610;2023-04-01T03:04:04;99538.63;;;11.54;82.08
74778;BME280;63298;53.164;8.610;2023-04-01T03:06:30;99536.38;;;11.51;82.20
74778;BME280;63298;53.164;8.610;2023-04-01T03:08:55;99529.19;;;11.50;82.16
74778;BME280;63298;53.164;8.610;2023-04-01T03:11:21;99533.88;;;11.50;82.09
74778;BME280;63298;53.164;8.610;2023-04-01T03:13:46;99535.56;;;11.46;82.42
74778;BME280;63298;53.164;8.610;2023-04-01T03:16:12;99533.88;;;11.45;82.22
74778;BME280;63298;53.164;8.610;2023-04-01T03:18:37;99542.47;;;11.48;82.09
74778;BME280;63298;53.164;8.610;2023-04-01T03:21:16;99541.06;;;11.46;82.43
74778;BME280;63298;53.164;8.610;2023-04-01T03:23:42;99533.09;;;11.44;82.04
74778;BME280;63298;53.164;8.610;2023-04-01T03:26:07;99536.38;;;11.46;82.68
74778;BME280;63298;53.164;8.610;2023-04-01T03:28:33;99531.41;;;11.43;81.88
74778;BME280;63298;53.164;8.610;2023-04-01T03:30:58;99529.19;;;11.40;82.00
74778;BME280;63298;53.164;8.610;2023-04-01T03:33:23;99544.41;;;11.48;82.26
74778;BME280;63298;53.164;8.610;2023-04-01T03:35:49;99544.41;;;11.48;82.08
74778;BME280;63298;53.164;8.610;2023-04-01T03:38:15;99535.28;;;11.47;81.85
74778;BME280;63298;53.164;8.610;2023-04-01T03:40:42;99539.72;;;11.43;82.44
74778;BME280;63298;53.164;8.610;2023-04-01T03:43:07;99536.13;;;11.43;82.34
74778;BME280;63298;53.164;8.610;2023-04-01T03:45:33;99533.88;;;11.40;82.35
74778;BME280;63298;53.164;8.610;2023-04-01T03:47:58;99545.75;;;11.40;82.33
74778;BME280;63298;53.164;8.610;2023-04-01T03:50:23;99553.22;;;11.40;82.17
74778;BME280;63298;53.164;8.610;2023-04-01T03:52:49;99555.72;;;11.41;81.82
74778;BME280;63298;53.164;8.610;2023-04-01T03:55:14;99545.22;;;11.33;82.71
74778;BME280;63298;53.164;8.610;2023-04-01T03:57:39;99553.50;;;11.28;82.17
74778;BME280;63298;53.164;8.610;2023-04-01T04:00:05;99558.75;;;11.30;82.31
74778;BME280;63298;53.164;8.610;2023-04-01T04:02:31;99559.53;;;11.30;82.65
74778;BME280;63298;53.164;8.610;2023-04-01T04:04:56;99552.38;;;11.29;82.01
74778;BME280;63298;53.164;8.610;2023-04-01T04:07:21;99558.75;;;11.30;82.35
74778;BME280;63298;53.164;8.610;2023-04-01T04:09:46;99569.81;;;11.35;82.18
74778;BME280;63298;53.164;8.610;2023-04-01T04:12:12;99563.97;;;11.31;82.42
74778;BME280;63298;53.164;8.610;2023-04-01T04:14:37;99566.47;;;11.33;82.02
74778;BME280;63298;53.164;8.610;2023-04-01T04:17:02;99561.19;;;11.26;82.69
74778;BME280;63298;53.164;8.610;2023-04-01T04:19:32;99574.75;;;11.27;82.00
74778;BME280;63298;53.164;8.610;2023-04-01T04:21:57;99561.75;;;11.23;82.26
74778;BME280;63298;53.164;8.610;2023-04-01T04:24:23;99573.91;;;11.22;82.77
74778;BME280;63298;53.164;8.610;2023-04-01T04:26:48;99569.22;;;11.22;82.46
74778;BME280;63298;53.164;8.610;2023-04-01T04:29:13;99570.56;;;11.20;82.56
74778;BME280;63298;53.164;8.610;2023-04-01T04:31:39;99572.22;;;11.16;82.74
74778;BME280;63298;53.164;8.610;2023-04-01T04:34:04;99581.59;;;11.20;82.82
74778;BME280;63298;53.164;8.610;2023-04-01T04:36:29;99578.31;;;11.18;82.44
74778;BME280;63298;53.164;8.610;2023-04-01T04:38:55;99579.97;;;11.19;82.61
74778;BME280;63298;53.164;8.610;2023-04-01T04:41:20;99590.69;;;11.15;82.46
74778;BME280;63298;53.164;8.610;2023-04-01T04:43:54;99590.44;;;11.17;82.87
74778;BME280;63298;53.164;8.610;2023-04-01T04:46:20;99593.78;;;11.19;82.69
74778;BME280;63298;53.164;8.610;2023-04-01T04:48:46;99593.19;;;11.17;82.34
74778;BME280;63298;53.164;8.610;2023-04-01T04:51:15;99594.28;;;11.16;82.55
74778;BME280;63298;53.164;8.610;2023-04-01T04:53:41;99597.06;;;11.16;82.90
74778;BME280;63298;53.164;8.610;2023-04-01T04:56:06;99603.41;;;11.16;82.33
74778;BME280;63298;53.164;8.610;2023-04-01T04:58:32;99608.09;;;11.16;82.70
74778;BME280;63298;53.164;8.610;2023-04-01T05:00:57;99599.81;;;11.16;83.06
74778;BME280;63298;53.164;8.610;2023-04-01T05:03:22;99610.84;;;11.16;82.51
74778;BME280;63298;53.164;8.610;2023-04-01T05:05:53;99605.06;;;11.12;82.71
74778;BME280;63298;53.164;8.610;2023-04-01T05:08:18;99611.97;;;11.15;82.36
74778;BME280;63298;53.164;8.610;2023-04-01T05:10:44;99602.03;;;11.14;82.55
74778;BME280;63298;53.164;8.610;2023-04-01T05:13:09;99606.47;;;11.15;82.79
74778;BME280;63298;53.164;8.610;2023-04-01T05:15:35;99612.53;;;11.17;82.86
74778;BME280;63298;53.164;8.610;2023-04-01T05:18:00;99620.81;;;11.22;82.47
74778;BME280;63298;53.164;8.610;2023-04-01T05:20:25;99616.41;;;11.21;82.48
74778;BME280;63298;53.164;8.610;2023-04-01T05:22:56;99626.91;;;11.24;82.15
74778;BME280;63298;53.164;8.610;2023-04-01T05:25:21;99626.09;;;11.29;82.43
74778;BME280;63298;53.164;8.610;2023-04-01T05:27:46;99629.13;;;11.27;82.76
74778;BME280;63298;53.164;8.610;2023-04-01T05:30:12;99622.22;;;11.24;82.53
74778;BME280;63298;53.164;8.610;2023-04-01T05:32:37;99626.94;;;11.29;82.21
74778;BME280;63298;53.164;8.610;2023-04-01T05:35:03;99633.00;;;11.31;82.46
74778;BME280;63298;53.164;8.610;2023-04-01T05:37:28;99624.72;;;11.31;82.33
74778;BME280;63298;53.164;8.610;2023-04-01T05:39:53;99629.72;;;11.34;82.09
74778;BME280;63298;53.164;8.610;2023-04-01T05:42:19;99620.84;;;11.32;81.84
74778;BME280;63298;53.164;8.610;2023-04-01T05:44:44;99637.44;;;11.37;82.16
74778;BME280;63298;53.164;8.610;2023-04-01T05:47:09;99645.97;;;11.36;82.42
74778;BME280;63298;53.164;8.610;2023-04-01T05:49:35;99640.19;;;11.32;82.05
74778;BME280;63298;53.164;8.610;2023-04-01T05:52:00;99653.44;;;11.35;81.79
74778;BME280;63298;53.164;8.610;2023-04-01T05:54:25;99645.13;;;11.30;82.65
74778;BME280;63298;53.164;8.610;2023-04-01T05:56:50;99651.47;;;11.25;82.18
74778;BME280;63298;53.164;8.610;2023-04-01T05:59:16;99652.59;;;11.24;82.45
74778;BME280;63298;53.164;8.610;2023-04-01T06:01:41;99655.03;;;11.21;82.63
74778;BME280;63298;53.164;8.610;2023-04-01T06:04:11;99655.84;;;11.16;82.57
74778;BME280;63298;53.164;8.610;2023-04-01T06:06:38;99658.91;;;11.15;82.78
74778;BME280;63298;53.164;8.610;2023-04-01T06:11:48;99667.19;;;11.15;83.21
74778;BME280;63298;53.164;8.610;2023-04-01T06:17:16;99676.28;;;11.20;83.21
74778;BME280;63298;53.164;8.610;2023-04-01T06:23:20;99680.13;;;11.09;83.88
74778;BME280;63298;53.164;8.610;2023-04-01T06:29:03;99683.16;;;11.08;83.95
74778;BME280;63298;53.164;8.610;2023-04-01T06:31:49;99686.47;;;11.10;82.95
74778;BME280;63298;53.164;8.610;2023-04-01T06:40:21;99695.31;;;11.12;83.08
74778;BME280;63298;53.164;8.610;2023-04-01T06:46:05;99703.63;;;11.17;83.35
74778;BME280;63298;53.164;8.610;2023-04-01T06:48:41;99699.75;;;11.18;83.22
74778;BME280;63298;53.164;8.610;2023-04-01T06:54:04;99697.84;;;11.18;82.97
74778;BME280;63298;53.164;8.610;2023-04-01T06:56:36;99700.03;;;11.16;82.67
74778;BME280;63298;53.164;8.610;2023-04-01T06:59:07;99708.88;;;11.18;83.31
74778;BME280;63298;53.164;8.610;2023-04-01T07:01:39;99715.50;;;11.22;83.39
74778;BME280;63298;53.164;8.610;2023-04-01T07:04:11;99710.56;;;11.24;83.38
74778;BME280;63298;53.164;8.610;2023-04-01T07:06:56;99716.88;;;11.20;83.81
74778;BME280;63298;53.164;8.610;2023-04-01T07:09:31;99722.97;;;11.22;83.74
74778;BME280;63298;53.164;8.610;2023-04-01T07:12:02;99728.22;;;11.23;83.35
74778;BME280;63298;53.164;8.610;2023-04-01T07:14:39;99722.38;;;11.20;83.89
74778;BME280;63298;53.164;8.610;2023-04-01T07:17:14;99738.19;;;11.24;84.04
74778;BME280;63298;53.164;8.610;2023-04-01T07:19:45;99738.97;;;11.25;83.69
74778;BME280;63298;53.164;8.610;2023-04-01T07:24:49;99743.44;;;11.31;83.99
74778;BME280;63298;53.164;8.610;2023-04-01T07:27:15;99736.81;;;11.32;83.76
74778;BME280;63298;53.164;8.610;2023-04-01T07:29:41;99740.16;;;11.39;83.01
74778;BME280;63298;53.164;8.610;2023-04-01T07:46:19;99767.59;;;11.61;83.03
74778;BME280;63298;53.164;8.610;2023-04-01T07:48:56;99768.97;;;11.58;83.22
74778;BME280;63298;53.164;8.610;2023-04-01T07:57:47;99776.16;;;11.54;82.83
74778;BME280;63298;53.164;8.610;2023-04-01T08:05:45;99788.34;;;11.63;83.03
74778;BME280;63298;53.164;8.610;2023-04-01T08:09:20;99793.03;;;11.63;83.07
74778;BME280;63298;53.164;8.610;2023-04-01T08:19:49;99807.69;;;11.68;82.50
74778;BME280;63298;53.164;8.610;2023-04-01T08:22:45;99810.72;;;11.67;83.47
74778;BME280;63298;53.164;8.610;2023-04-01T08:25:19;99812.63;;;11.61;82.98
74778;BME280;63298;53.164;8.610;2023-04-01T08:28:21;99825.91;;;11.69;83.04
74778;BME280;63298;53.164;8.610;2023-04-01T08:30:53;99820.13;;;11.71;82.28
74778;BME280;63298;53.164;8.610;2023-04-01T08:33:24;99830.38;;;11.76;83.38
74778;BME280;63298;53.164;8.610;2023-04-01T08:39:09;99835.66;;;11.77;82.56
74778;BME280;63298;53.164;8.610;2023-04-01T08:46:47;99841.44;;;11.76;83.26
74778;BME280;63298;53.164;8.610;2023-04-01T08:57:35;99850.28;;;11.73;83.57
74778;BME280;63298;53.164;8.610;2023-04-01T09:06:24;99861.66;;;11.86;83.17
74778;BME280;63298;53.164;8.610;2023-04-01T09:09:27;99865.88;;;11.94;83.78
74778;BME280;63298;53.164;8.610;2023-04-01T09:17:34;99877.53;;;12.11;84.26
74778;BME280;63298;53.164;8.610;2023-04-01T09:34:24;99875.91;;;12.20;82.66
74778;BME280;63298;53.164;8.610;2023-04-01T09:39:39;99904.69;;;12.29;82.19
74778;BME280;63298;53.164;8.610;2023-04-01T09:45:01;99907.97;;;12.21;82.85
74778;BME280;63298;53.164;8.610;2023-04-01T09:53:07;99904.56;;;11.94;82.52
74778;BME280;63298;53.164;8.610;2023-04-01T09:55:52;99929.88;;;11.81;81.85
74778;BME280;63298;53.164;8.610;2023-04-01T09:58:32;99939.69;;;11.61;82.52
74778;BME280;63298;53.164;8.610;2023-04-01T10:20:31;99997.78;;;10.81;83.01
74778;BME280;63298;53.164;8.610;2023-04-01T10:34:11;100017.78;;;10.45;82.67
74778;BME280;63298;53.164;8.610;2023-04-01T10:39:22;100024.47;;;10.32;81.52
74778;BME280;63298;53.164;8.610;2023-04-01T10:48:01;100024.28;;;10.17;82.57
74778;BME280;63298;53.164;8.610;2023-04-01T10:53:42;100028.06;;;9.94;84.17
74778;BME280;63298;53.164;8.610;2023-04-01T11:02:22;100034.31;;;9.89;82.92
74778;BME280;63298;53.164;8.610;2023-04-01T11:31:04;100093.50;;;9.70;82.66
74778;BME280;63298;53.164;8.610;2023-04-01T11:39:30;100088.56;;;9.39;83.67
74778;BME280;63298;53.164;8.610;2023-04-01T11:42:24;100101.66;;;9.48;83.40
74778;BME280;63298;53.164;8.610;2023-04-01T11:53:23;100130.22;;;9.59;82.79
74778;BME280;63298;53.164;8.610;2023-04-01T11:56:09;100138.97;;;9.56;83.38
74778;BME280;63298;53.164;8.610;2023-04-01T12:07:15;100173.50;;;9.47;82.79
74778;BME280;63298;53.164;8.610;2023-04-01T12:12:29;100161.59;;;9.30;83.84
74778;BME280;63298;53.164;8.610;2023-04-01T12:15:13;100168.38;;;9.39;82.94
74778;BME280;63298;53.164;8.610;2023-04-01T12:20:22;100176.53;;;9.34;82.44
74778;BME280;63298;53.164;8.610;2023-04-01T12:23:05;100195.06;;;9.38;82.28
74778;BME280;63298;53.164;8.610;2023-04-01T12:25:56;100192.41;;;9.43;82.49
74778;BME280;63298;53.164;8.610;2023-04-01T12:37:26;100209.97;;;9.26;82.79
74778;BME280;63298;53.164;8.610;2023-04-01T12:40:28;100214.03;;;9.23;82.95
74778;BME280;63298;53.164;8.610;2023-04-01T12:45:33;100221.81;;;9.26;83.17
74778;BME280;63298;53.164;8.610;2023-04-01T13:01:54;100246.53;;;9.38;82.38
74778;BME280;63298;53.164;8.610;2023-04-01T13:18:16;100278.38;;;9.34;82.08
74778;BME280;63298;53.164;8.610;2023-04-01T13:40:04;100290.34;;;9.39;82.62
74778;BME280;63298;53.164;8.610;2023-04-01T13:42:41;100296.06;;;9.38;82.07
74778;BME280;63298;53.164;8.610;2023-04-01T13:45:24;100313.31;;;9.33;82.67
74778;BME280;63298;53.164;8.610;2023-04-01T13:56:34;100331.06;;;9.26;82.29
74778;BME280;63298;53.164;8.610;2023-04-01T13:59:15;100345.66;;;9.15;82.70
74778;BME280;63298;53.164;8.610;2023-04-01T14:16:07;100376.41;;;9.12;81.11
74778;BME280;63298;53.164;8.610;2023-04-01T14:19:18;100361.19;;;8.86;81.25
74778;BME280;63298;53.164;8.610;2023-04-01T14:30:43;100416.16;;;8.74;81.20
74778;BME280;63298;53.164;8.610;2023-04-01T14:36:28;100421.09;;;8.72;80.72
74778;BME280;63298;53.164;8.610;2023-04-01T14:49:53;100416.59;;;8.59;80.87
74778;BME280;63298;53.164;8.610;2023-04-01T14:52:31;100424.84;;;8.59;80.32
74778;BME280;63298;53.164;8.610;2023-04-01T14:54:58;100422.09;;;8.59;80.50
74778;BME280;63298;53.164;8.610;2023-04-01T14:57:28;100456.69;;;8.67;81.19
74778;BME280;63298;53.164;8.610;2023-04-01T15:11:01;100464.94;;;8.37;80.25
74778;BME280;63298;53.164;8.610;2023-04-01T15:18:50;100454.31;;;8.22;80.88
74778;BME280;63298;53.164;8.610;2023-04-01T15:24:24;100473.69;;;8.09;80.36
74778;BME280;63298;53.164;8.610;2023-04-01T15:27:03;100488.00;;;8.18;80.94
74778;BME280;63298;53.164;8.610;2023-04-01T15:29:47;100494.19;;;8.13;81.11
74778;BME280;63298;53.164;8.610;2023-04-01T15:32:39;100497.84;;;8.07;81.27
74778;BME280;63298;53.164;8.610;2023-04-01T15:37:48;100518.28;;;8.11;80.90
74778;BME280;63298;53.164;8.610;2023-04-01T15:43:12;100539.25;;;8.06;81.23
74778;BME280;63298;53.164;8.610;2023-04-01T15:45:47;100547.06;;;8.09;80.90
74778;BME280;63298;53.164;8.610;2023-04-01T15:51:01;100552.78;;;8.07;80.75
74778;BME280;63298;53.164;8.610;2023-04-01T15:53:46;100552.78;;;8.07;80.60
74778;BME280;63298;53.164;8.610;2023-04-01T16:05:37;100583.06;;;8.01;80.32
74778;BME280;63298;53.164;8.610;2023-04-01T16:07:59;100591.06;;;8.02;80.10
74778;BME280;63298;53.164;8.610;2023-04-01T16:10:40;100585.63;;;7.96;80.15
74778;BME280;63298;53.164;8.610;2023-04-01T16:13:28;100595.34;;;7.98;79.99
74778;BME280;63298;53.164;8.610;2023-04-01T16:16:41;100606.03;;;8.06;79.63
74778;BME280;63298;53.164;8.610;2023-04-01T16:19:21;100609.47;;;8.02;79.39
74778;BME280;63298;53.164;8.610;2023-04-01T16:24:48;100619.22;;;7.98;79.22
74778;BME280;63298;53.164;8.610;2023-04-01T16:30:09;100620.28;;;7.97;79.90
74778;BME280;63298;53.164;8.610;2023-04-01T16:32:52;100624.72;;;7.98;79.15
74778;BME280;63298;53.164;8.610;2023-04-01T16:37:49;100634.22;;;7.95;79.38
74778;BME280;63298;53.164;8.610;2023-04-01T16:43:12;100649.88;;;7.95;78.96
74778;BME280;63298;53.164;8.610;2023-04-01T16:45:43;100660.03;;;7.94;79.18
74778;BME280;63298;53.164;8.610;2023-04-01T16:48:15;100645.78;;;7.79;78.28
74778;BME280;63298;53.164;8.610;2023-04-01T16:51:04;100638.28;;;7.68;78.93
74778;BME280;63298;53.164;8.610;2023-04-01T16:53:41;100672.75;;;7.89;78.80
74778;BME280;63298;53.164;8.610;2023-04-01T16:56:20;100664.22;;;7.72;79.39
74778;BME280;63298;53.164;8.610;2023-04-01T16:59:07;100673.25;;;7.79;78.76
74778;BME280;63298;53.164;8.610;2023-04-01T17:01:49;100680.41;;;7.80;78.65
74778;BME280;63298;53.164;8.610;2023-04-01T17:04:29;100684.25;;;7.79;78.75
74778;BME280;63298;53.164;8.610;2023-04-01T17:21:15;100746.91;;;7.51;77.99
74778;BME280;63298;53.164;8.610;2023-04-01T17:23:52;100748.00;;;7.50;78.60
74778;BME280;63298;53.164;8.610;2023-04-01T17:31:53;100767.69;;;7.33;78.78
74778;BME280;63298;53.164;8.610;2023-04-01T17:40:06;100790.50;;;7.27;78.39
74778;BME280;63298;53.164;8.610;2023-04-01T17:42:58;100798.28;;;7.30;78.74
74778;BME280;63298;53.164;8.610;2023-04-01T17:45:53;100814.34;;;7.33;78.91
74778;BME280;63298;53.164;8.610;2023-04-01T17:51:37;100811.66;;;7.07;77.71
74778;BME280;63298;53.164;8.610;2023-04-01T17:59:44;100836.56;;;7.06;78.38
74778;BME280;63298;53.164;8.610;2023-04-01T18:06:01;100852.81;;;7.07;78.87
74778;BME280;63298;53.164;8.610;2023-04-01T18:08:34;100870.31;;;7.06;78.51
74778;BME280;63298;53.164;8.610;2023-04-01T18:19:51;100891.19;;;7.01;78.02
74778;BME280;63298;53.164;8.610;2023-04-01T18:22:41;100896.09;;;7.05;77.75
74778;BME280;63298;53.164;8.610;2023-04-01T18:28:22;100905.34;;;6.91;78.06
74778;BME280;63298;53.164;8.610;2023-04-01T18:30:57;100914.63;;;6.77;77.95
74778;BME280;63298;53.164;8.610;2023-04-01T18:36:43;100903.47;;;6.59;77.58
74778;BME280;63298;53.164;8.610;2023-04-01T18:39:21;100934.69;;;6.84;77.30
74778;BME280;63298;53.164;8.610;2023-04-01T18:42:14;100932.34;;;6.81;77.23
74778;BME280;63298;53.164;8.610;2023-04-01T18:45:26;100922.22;;;6.68;77.04
74778;BME280;63298;53.164;8.610;2023-04-01T18:51:16;100945.84;;;6.63;77.60
74778;BME280;63298;53.164;8.610;2023-04-01T18:53:48;100986.56;;;6.79;77.31
74778;BME280;63298;53.164;8.610;2023-04-01T18:56:29;100987.59;;;6.78;76.63
74778;BME280;63298;53.164;8.610;2023-04-01T18:59:25;100985.69;;;6.72;76.71
74778;BME280;63298;53.164;8.610;2023-04-01T19:07:50;101006.13;;;6.63;76.46
74778;BME280;63298;53.164;8.610;2023-04-01T19:10:20;101016.66;;;6.59;76.50
74778;BME280;63298;53.164;8.610;2023-04-01T19:12:49;101013.28;;;6.50;76.31
74778;BME280;63298;53.164;8.610;2023-04-01T19:15:30;101021.06;;;6.54;76.28
74778;BME280;63298;53.164;8.610;2023-04-01T19:18:13;101036.44;;;6.48;76.00
74778;BME280;63298;53.164;8.610;2023-04-01T19:20:53;101025.25;;;6.43;76.01
74778;BME280;63298;53.164;8.610;2023-04-01T19:26:30;101031.34;;;6.38;76.77
74778;BME280;63298;53.164;8.610;2023-04-01T19:29:06;101050.09;;;6.41;76.23
74778;BME280;63298;53.164;8.610;2023-04-01T19:32:00;101057.91;;;6.31;77.16
74778;BME280;63298;53.164;8.610;2023-04-01T19:36:57;101061.22;;;6.27;77.13
74778;BME280;63298;53.164;8.610;2023-04-01T19:42:16;101080.03;;;6.36;76.82
74778;BME280;63298;53.164;8.610;2023-04-01T19:45:20;101069.19;;;6.15;76.73
74778;BME280;63298;53.164;8.610;2023-04-01T19:48:45;101097.47;;;6.29;75.94
74778;BME280;63298;53.164;8.610;2023-04-01T19:50:58;101094.50;;;6.24;76.07
74778;BME280;63298;53.164;8.610;2023-04-01T19:53:42;101110.13;;;6.30;75.44
74778;BME280;63298;53.164;8.610;2023-04-01T19:56:18;101108.84;;;6.26;75.25
74778;BME280;63298;53.164;8.610;2023-04-01T20:04:11;101126.03;;;6.13;75.53
74778;BME280;63298;53.164;8.610;2023-04-01T20:06:56;101118.28;;;6.17;76.19
74778;BME280;63298;53.164;8.610;2023-04-01T20:14:53;101147.41;;;6.24;75.71
74778;BME280;63298;53.164;8.610;2023-04-01T20:17:42;101158.78;;;6.28;75.29
74778;BME280;63298;53.164;8.610;2023-04-01T20:25:32;101177.69;;;6.16;74.86
74778;BME280;63298;53.164;8.610;2023-04-01T20:28:13;101189.28;;;6.18;75.73
74778;BME280;63298;53.164;8.610;2023-04-01T20:36:43;101211.63;;;6.22;74.97
74778;BME280;63298;53.164;8.610;2023-04-01T20:39:48;101217.44;;;6.05;74.85
74778;BME280;63298;53.164;8.610;2023-04-01T20:45:44;101219.94;;;6.07;74.63
74778;BME280;63298;53.164;8.610;2023-04-01T20:50:53;101227.28;;;6.00;74.89
74778;BME280;63298;53.164;8.610;2023-04-01T20:53:36;101250.66;;;6.02;74.80
74778;BME280;63298;53.164;8.610;2023-04-01T21:07:39;101269.25;;;6.07;74.35
74778;BME280;63298;53.164;8.610;2023-04-01T21:10:25;101279.50;;;5.98;75.14
74778;BME280;63298;53.164;8.610;2023-04-01T21:16:14;101294.81;;;5.93;73.84
74778;BME280;63298;53.164;8.610;2023-04-01T21:44:35;101345.41;;;5.61;71.74
74778;BME280;63298;53.164;8.610;2023-04-01T21:56:03;101373.53;;;5.40;69.52
74778;BME280;63298;53.164;8.610;2023-04-01T21:58:53;101389.13;;;5.25;69.66
74778;BME280;63298;53.164;8.610;2023-04-01T22:04:31;101388.19;;;5.18;70.03
74778;BME280;63298;53.164;8.610;2023-04-01T22:07:21;101394.28;;;5.05;69.61
74778;BME280;63298;53.164;8.610;2023-04-01T22:10:17;101404.38;;;5.05;70.02
74778;BME280;63298;53.164;8.610;2023-04-01T22:18:15;101424.88;;;4.71;69.95
74778;BME280;63298;53.164;8.610;2023-04-01T22:20:49;101426.28;;;4.67;69.91
74778;BME280;63298;53.164;8.610;2023-04-01T22:23:28;101434.56;;;4.74;69.68
74778;BME280;63298;53.164;8.610;2023-04-01T22:31:44;101446.50;;;4.58;69.87
74778;BME280;63298;53.164;8.610;2023-04-01T22:42:41;101479.16;;;4.52;68.93
74778;BME280;63298;53.164;8.610;2023-04-01T22:50:40;101488.50;;;4.34;69.67
74778;BME280;63298;53.164;8.610;2023-04-01T22:56:03;101494.81;;;4.35;69.39